This is the latest recevied weather packets stored in our database for station/object KD4KKF. If no packets are shown the sender has not sent any weather packets the latest 10 day(s).
| Time | Temp. | Humidity | Pressure | Rain* | Wind** | Luminosity | Snow |
|---|---|---|---|---|---|---|---|
| 1777296291 | 22.22° C | 78% | 1015.7 hPa | 0 mm | - | 113 W/m² | - |
| 1777295987 | 21.67° C | 80% | 1015.5 hPa | 0 mm | - | 298 W/m² | - |
| 1777295685 | 21.67° C | 80% | 1015.6 hPa | 0 mm | - | 275 W/m² | - |
| 1777295382 | 21.67° C | 82% | 1015.5 hPa | 0 mm | - | 258 W/m² | - |
| 1777295080 | 21.11° C | 83% | 1015.6 hPa | 0 mm | - | 227 W/m² | - |
| 1777294777 | 20.56° C | 85% | 1015.5 hPa | 0 mm | - | 209 W/m² | - |
| 1777294472 | 20° C | 90% | 1015.4 hPa | 0 mm | - | 208 W/m² | - |
| 1777294169 | 18.89° C | 96% | 1015.3 hPa | 0 mm | - | 186 W/m² | - |
| 1777293866 | 17.78° C | 99% | 1015.4 hPa | 0 mm | - | 124 W/m² | - |
| 1777293561 | 17.22° C | 99% | 1015.5 hPa | 0 mm | - | 98 W/m² | - |
| 1777293257 | 17.22° C | 99% | 1015.5 hPa | 0 mm | - | 86 W/m² | - |
| 1777292956 | 17.22° C | 99% | 1015.3 hPa | 0 mm | - | 75 W/m² | - |
| 1777292652 | 16.67° C | 99% | 1014.8 hPa | 0 mm | - | 66 W/m² | - |
| 1777292348 | 16.67° C | 99% | 1014.9 hPa | 0 mm | - | 54 W/m² | - |
| 1777292044 | 16.11° C | 99% | 1014.8 hPa | 0 mm | - | 52 W/m² | - |
| 1777291741 | 16.11° C | 99% | 1014.9 hPa | 0 mm | - | 49 W/m² | - |
| 1777291438 | 15.56° C | 99% | 1015 hPa | 0 mm | - | 42 W/m² | - |
| 1777291134 | 15° C | 99% | 1014.8 hPa | 0 mm | - | 28 W/m² | - |
| 1777290831 | 15° C | 99% | 1014.6 hPa | 0 mm | - | 21 W/m² | - |
| 1777290528 | 15° C | 99% | 1014.7 hPa | 0 mm | - | 16 W/m² | - |
| 1777290224 | 15° C | 99% | 1014.6 hPa | 0 mm | - | 12 W/m² | - |
| 1777289921 | 15° C | 99% | 1014.6 hPa | 0 mm | - | 10 W/m² | - |
| 1777289617 | 15° C | 99% | 1014.5 hPa | 0 mm | - | 9 W/m² | - |
| 1777289313 | 15° C | 99% | 1014.3 hPa | 0 mm | - | 10 W/m² | - |
| 1777289009 | 15° C | 99% | 1014.1 hPa | 0 mm | - | 6 W/m² | - |
* Rain latest hour (hover to see other rain measurements)
** Current wind speed in m/s (hover to see current wind gust speed)